Time;durP1;ratioP1;P1;durP2;ratioP2;P2;SDS_P1;SDS_P2;PMS_P1;PMS_P2;Temp;Humidity;BMP_temperature;BMP_pressure;BME280_temperature;BME280_humidity;BME280_pressure;Samples;Min_cycle;Max_cycle;Signal;HPM_P1;HPM_P2
2022/07/13 00:00:45;;;;;;;2.90;2.37;;;20.10;99.90;;;;;;5046880;28;20241;-59
2022/07/13 00:03:14;;;;;;;3.07;2.57;;;20.10;99.90;;;;;;5045984;28;20234;-58
2022/07/13 00:05:43;;;;;;;3.13;2.80;;;20.10;99.90;;;;;;5046789;28;20702;-59
2022/07/13 00:08:11;;;;;;;2.70;2.50;;;20.10;99.90;;;;;;5044938;28;20220;-58
2022/07/13 00:10:39;;;;;;;3.43;2.23;;;20.10;99.90;;;;;;5046295;28;20243;-59
2022/07/13 00:13:07;;;;;;;2.50;2.13;;;20.10;99.90;;;;;;5046477;28;20223;-58
2022/07/13 00:15:36;;;;;;;2.33;2.13;;;20.10;99.90;;;;;;5047173;28;20349;-58
2022/07/13 00:18:04;;;;;;;3.20;2.90;;;20.00;99.90;;;;;;5044684;28;20224;-58
2022/07/13 00:20:41;;;;;;;2.60;2.27;;;20.00;99.90;;;;;;5044966;28;20216;-58
2022/07/13 00:23:09;;;;;;;3.93;2.33;;;19.90;99.90;;;;;;5044892;28;20237;-58
2022/07/13 00:25:37;;;;;;;3.03;2.30;;;19.90;99.90;;;;;;5045502;28;20230;-58
2022/07/13 00:28:05;;;;;;;2.70;2.03;;;19.80;99.90;;;;;;5045104;28;20246;-59
2022/07/13 00:30:33;;;;;;;3.47;2.37;;;19.80;99.90;;;;;;5044665;28;20727;-58
2022/07/13 00:33:01;;;;;;;2.50;2.30;;;19.80;99.90;;;;;;5044582;28;20690;-58
2022/07/13 00:35:30;;;;;;;2.87;2.00;;;19.80;99.90;;;;;;5045025;28;20235;-57
2022/07/13 00:37:59;;;;;;;2.77;2.50;;;19.90;99.90;;;;;;5044718;28;20276;-57
2022/07/13 00:40:27;;;;;;;2.40;2.20;;;19.90;99.90;;;;;;5044330;28;20254;-58
2022/07/13 00:42:57;;;;;;;3.70;2.20;;;19.90;99.90;;;;;;5045809;28;20706;-57
2022/07/13 00:45:25;;;;;;;2.13;1.90;;;19.90;99.90;;;;;;5045042;28;20242;-58
2022/07/13 00:47:55;;;;;;;2.03;1.83;;;19.90;99.90;;;;;;5043678;28;20780;-59
2022/07/13 00:50:24;;;;;;;3.30;2.40;;;19.90;99.90;;;;;;5062182;28;20606;-58
2022/07/13 00:52:54;;;;;;;3.83;2.40;;;19.90;99.90;;;;;;5044765;28;21174;-58
2022/07/13 00:55:26;;;;;;;3.80;1.90;;;19.90;99.90;;;;;;5043287;28;20237;-59
2022/07/13 00:57:54;;;;;;;2.57;2.03;;;19.90;99.90;;;;;;5042455;28;20238;-58
2022/07/13 01:00:23;;;;;;;2.13;1.90;;;19.90;99.90;;;;;;5043877;28;20236;-58
2022/07/13 01:02:51;;;;;;;2.60;1.90;;;19.90;99.90;;;;;;5044984;28;20227;-58
2022/07/13 01:05:20;;;;;;;3.03;2.40;;;19.90;99.90;;;;;;5044973;28;20748;-58
2022/07/13 01:07:49;;;;;;;2.30;2.10;;;19.90;99.90;;;;;;5041688;28;20744;-58
2022/07/13 01:10:17;;;;;;;2.40;2.20;;;19.90;99.90;;;;;;5042720;28;20781;-58
2022/07/13 01:12:46;;;;;;;2.67;2.07;;;19.80;99.90;;;;;;5044118;28;21537;-59
2022/07/13 01:15:15;;;;;;;2.50;2.10;;;19.80;99.90;;;;;;5044465;28;20622;-58
2022/07/13 01:18:17;;;;;;;3.83;2.60;;;19.80;99.90;;;;;;5058932;28;20305;-58
2022/07/13 01:20:45;;;;;;;2.70;2.50;;;19.80;99.90;;;;;;5044648;28;20230;-58
2022/07/13 01:23:15;;;;;;;2.80;2.33;;;19.80;99.90;;;;;;5046814;28;20800;-58
2022/07/13 01:25:44;;;;;;;3.67;2.03;;;19.80;99.90;;;;;;5043465;28;20245;-59
2022/07/13 01:28:13;;;;;;;3.20;2.20;;;19.90;99.90;;;;;;5042881;28;20726;-59
2022/07/13 01:30:42;;;;;;;2.80;1.93;;;19.80;99.90;;;;;;5044796;28;20317;-58
2022/07/13 01:33:10;;;;;;;3.77;2.57;;;19.80;99.90;;;;;;5045359;28;20229;-58
2022/07/13 01:35:38;;;;;;;2.50;2.30;;;19.80;99.90;;;;;;5044278;28;20582;-59
2022/07/13 01:38:06;;;;;;;2.77;2.47;;;19.80;99.90;;;;;;5044937;28;20314;-59
2022/07/13 01:40:37;;;;;;;2.40;2.20;;;19.80;99.90;;;;;;5042575;28;20314;-59
2022/07/13 01:43:05;;;;;;;2.30;2.20;;;19.70;99.90;;;;;;5043257;28;20348;-58
2022/07/13 01:45:33;;;;;;;2.43;2.20;;;19.70;99.90;;;;;;5046057;28;21063;-58
2022/07/13 01:48:01;;;;;;;2.30;2.10;;;19.70;99.90;;;;;;5058573;28;20437;-59
2022/07/13 01:50:29;;;;;;;2.87;2.30;;;19.70;99.90;;;;;;5042681;28;20234;-58
2022/07/13 01:52:58;;;;;;;2.40;2.20;;;19.70;99.90;;;;;;5075396;28;20227;-58
2022/07/13 01:55:28;;;;;;;2.37;2.17;;;19.70;99.90;;;;;;5043217;28;20234;-58
2022/07/13 01:57:59;;;;;;;2.80;2.57;;;19.70;99.90;;;;;;5041892;28;20603;-58
2022/07/13 02:00:29;;;;;;;2.50;2.30;;;19.70;99.90;;;;;;5075027;28;20590;-58
2022/07/13 02:02:57;;;;;;;3.67;2.33;;;19.70;99.90;;;;;;5042398;28;21017;-58
2022/07/13 02:05:27;;;;;;;4.83;2.70;;;19.70;99.90;;;;;;5041829;28;20324;-58
2022/07/13 02:07:56;;;;;;;2.50;2.30;;;19.70;99.90;;;;;;5042134;28;20314;-58
2022/07/13 02:10:35;;;;;;;2.60;2.40;;;19.60;99.90;;;;;;5045868;28;20634;-59
2022/07/13 02:13:08;;;;;;;3.17;2.87;;;19.60;99.90;;;;;;5079373;28;20736;-58
2022/07/13 02:15:37;;;;;;;3.53;2.93;;;19.70;99.90;;;;;;5047144;28;20230;-58
2022/07/13 02:18:06;;;;;;;2.83;2.57;;;19.60;99.90;;;;;;5048732;28;20300;-59
2022/07/13 02:20:35;;;;;;;2.60;2.40;;;19.60;99.90;;;;;;5047449;28;20242;-59
2022/07/13 02:23:05;;;;;;;2.37;2.17;;;19.70;99.90;;;;;;5078678;28;20714;-59
2022/07/13 02:25:33;;;;;;;3.00;2.80;;;19.70;99.90;;;;;;5047220;28;20227;-59
2022/07/13 02:28:02;;;;;;;2.67;2.00;;;19.70;99.90;;;;;;5048072;28;21463;-58
2022/07/13 02:30:32;;;;;;;2.60;2.40;;;19.60;99.90;;;;;;5047206;28;21385;-58
2022/07/13 02:33:00;;;;;;;2.30;2.10;;;19.60;99.90;;;;;;5048863;28;20246;-58
2022/07/13 02:35:28;;;;;;;2.47;2.27;;;19.60;99.90;;;;;;5063108;28;20237;-58
2022/07/13 02:38:02;;;;;;;3.20;2.40;;;19.60;99.90;;;;;;5046695;28;20561;-58
2022/07/13 02:40:30;;;;;;;4.13;2.70;;;19.60;99.90;;;;;;5047313;28;20227;-58
2022/07/13 02:42:58;;;;;;;2.73;2.13;;;19.60;99.90;;;;;;5045981;28;20231;-58
2022/07/13 02:45:26;;;;;;;2.53;2.30;;;19.60;99.90;;;;;;5046783;28;20234;-58
2022/07/13 02:47:57;;;;;;;2.93;2.37;;;19.60;99.90;;;;;;5043771;28;20262;-58
2022/07/13 02:50:26;;;;;;;2.93;2.20;;;19.60;99.90;;;;;;5046075;28;21013;-58
2022/07/13 02:52:55;;;;;;;2.27;2.07;;;19.60;99.90;;;;;;5045839;28;20277;-59
2022/07/13 02:55:24;;;;;;;2.30;2.10;;;19.60;99.90;;;;;;5045348;28;20757;-58
2022/07/13 02:57:53;;;;;;;3.40;2.50;;;19.60;99.90;;;;;;5043174;28;20286;-59
2022/07/13 03:00:22;;;;;;;2.67;2.47;;;19.50;99.90;;;;;;5045800;28;20882;-59
2022/07/13 03:02:51;;;;;;;2.83;2.50;;;19.50;99.90;;;;;;5047782;28;20227;-58
2022/07/13 03:05:23;;;;;;;3.83;2.93;;;19.50;99.90;;;;;;5044663;28;20234;-58
2022/07/13 03:07:52;;;;;;;4.47;2.43;;;19.50;99.90;;;;;;5044613;28;20338;-58
2022/07/13 03:10:20;;;;;;;2.47;2.27;;;19.50;99.90;;;;;;5044231;28;20231;-58
2022/07/13 03:12:52;;;;;;;3.53;2.40;;;19.50;99.90;;;;;;5045371;28;20276;-59
2022/07/13 03:15:21;;;;;;;3.83;2.50;;;19.50;99.90;;;;;;5047146;28;20578;-58
2022/07/13 03:17:49;;;;;;;2.80;2.60;;;19.50;99.90;;;;;;5043722;28;20658;-58
2022/07/13 03:20:19;;;;;;;3.80;2.30;;;19.40;99.90;;;;;;5045307;28;20326;-58
2022/07/13 03:22:49;;;;;;;3.83;2.53;;;19.50;99.90;;;;;;5045742;28;20743;-59
2022/07/13 03:25:17;;;;;;;2.47;2.27;;;19.50;99.90;;;;;;5063382;28;20239;-58
2022/07/13 03:27:51;;;;;;;2.90;2.60;;;19.50;99.90;;;;;;5044627;28;20625;-57
2022/07/13 03:30:21;;;;;;;3.40;2.77;;;19.40;99.90;;;;;;5045201;28;20810;-58
2022/07/13 03:32:49;;;;;;;3.80;2.43;;;19.40;99.90;;;;;;5044267;28;20918;-58
2022/07/13 03:35:19;;;;;;;2.50;2.30;;;19.50;99.90;;;;;;5044915;28;20718;-58
2022/07/13 03:37:50;;;;;;;5.53;2.40;;;19.50;99.90;;;;;;5044089;28;20235;-58
2022/07/13 03:40:22;;;;;;;2.30;2.10;;;19.50;99.90;;;;;;5063281;28;20238;-60
2022/07/13 03:42:51;;;;;;;2.73;2.40;;;19.40;99.90;;;;;;5044786;28;20635;-58
2022/07/13 03:45:20;;;;;;;2.87;2.30;;;19.30;99.90;;;;;;5045717;28;20227;-58
2022/07/13 03:47:48;;;;;;;2.87;2.40;;;19.30;99.90;;;;;;5060785;28;20728;-57
2022/07/13 03:50:17;;;;;;;3.67;2.50;;;19.30;99.90;;;;;;5045738;28;20231;-58
2022/07/13 03:52:46;;;;;;;4.83;2.40;;;19.20;99.90;;;;;;5045614;28;20300;-58
2022/07/13 03:55:18;;;;;;;2.20;2.10;;;19.10;99.90;;;;;;5055045;28;20233;-58
2022/07/13 03:57:47;;;;;;;2.80;2.30;;;19.20;99.90;;;;;;5070503;28;20266;-58
2022/07/13 04:00:17;;;;;;;2.57;2.17;;;19.10;99.90;;;;;;5051566;28;20713;-58
2022/07/13 04:02:50;;;;;;;2.63;2.43;;;19.20;99.90;;;;;;5044116;28;20238;-58
2022/07/13 04:05:20;;;;;;;2.90;2.60;;;19.20;99.90;;;;;;5044160;28;20229;-58
2022/07/13 04:07:48;;;;;;;2.23;2.00;;;19.30;99.90;;;;;;5044483;28;20235;-58
2022/07/13 04:10:19;;;;;;;5.80;2.30;;;19.30;99.90;;;;;;5044028;28;20230;-58
2022/07/13 04:12:50;;;;;;;2.40;2.20;;;19.30;99.90;;;;;;5053022;28;20229;-58
2022/07/13 04:15:21;;;;;;;3.00;2.50;;;19.30;99.90;;;;;;5051698;28;20276;-58
2022/07/13 04:17:50;;;;;;;2.43;2.23;;;19.40;99.90;;;;;;5052328;28;20234;-58
2022/07/13 04:20:19;;;;;;;2.90;2.57;;;19.40;99.90;;;;;;5053407;28;20223;-58
2022/07/13 04:22:48;;;;;;;2.20;2.00;;;19.40;99.90;;;;;;5052487;28;20234;-58
2022/07/13 04:25:19;;;;;;;2.50;2.30;;;19.50;99.90;;;;;;5055370;28;20237;-58
2022/07/13 04:27:48;;;;;;;2.30;2.10;;;19.50;99.90;;;;;;5050827;28;20246;-58
2022/07/13 04:30:17;;;;;;;4.07;2.83;;;19.50;99.90;;;;;;5051604;28;20241;-58
2022/07/13 04:32:45;;;;;;;2.93;2.60;;;19.50;99.90;;;;;;5053856;28;20238;-59
2022/07/13 04:35:15;;;;;;;3.57;2.30;;;19.60;99.90;;;;;;5049487;28;20730;-58
2022/07/13 04:37:46;;;;;;;3.20;2.80;;;19.60;99.90;;;;;;5042124;28;20619;-59
2022/07/13 04:40:15;;;;;;;2.20;2.00;;;19.60;99.90;;;;;;5076337;28;20737;-59
2022/07/13 04:42:44;;;;;;;2.83;2.07;;;19.60;99.90;;;;;;5044880;28;20227;-58
2022/07/13 04:45:18;;;;;;;3.30;2.23;;;19.70;99.90;;;;;;5049219;28;20254;-59
2022/07/13 04:47:50;;;;;;;4.83;2.73;;;19.70;99.90;;;;;;5050215;28;20778;-58
2022/07/13 04:50:19;;;;;;;4.07;3.30;;;19.70;99.90;;;;;;5052990;28;20258;-58
2022/07/13 04:52:47;;;;;;;3.80;2.27;;;19.70;99.90;;;;;;5068928;28;20234;-58
2022/07/13 04:55:16;;;;;;;2.77;2.20;;;19.70;99.90;;;;;;5051588;28;20234;-58
2022/07/13 04:57:46;;;;;;;2.60;2.40;;;19.70;99.90;;;;;;5042683;28;20745;-59
2022/07/13 05:00:16;;;;;;;3.13;2.50;;;19.70;99.90;;;;;;5045800;28;20226;-58
2022/07/13 05:02:44;;;;;;;4.63;2.47;;;19.80;99.90;;;;;;5044130;28;20239;-58
2022/07/13 05:05:12;;;;;;;3.67;2.47;;;19.80;99.90;;;;;;5044572;28;20231;-58
2022/07/13 05:07:40;;;;;;;3.87;2.73;;;19.90;99.90;;;;;;5045918;28;20226;-59
2022/07/13 05:10:11;;;;;;;3.63;3.03;;;19.90;99.90;;;;;;5054665;28;20303;-58
2022/07/13 05:12:42;;;;;;;2.50;2.30;;;20.00;99.90;;;;;;5070226;28;20268;-58
2022/07/13 05:15:13;;;;;;;2.33;2.10;;;20.10;99.90;;;;;;5054594;28;20216;-59
2022/07/13 05:17:41;;;;;;;4.60;2.50;;;20.20;99.90;;;;;;5050554;28;20230;-58
2022/07/13 05:20:13;;;;;;;3.20;2.50;;;20.20;99.90;;;;;;5049062;28;20237;-58
2022/07/13 05:22:48;;;;;;;4.53;2.30;;;20.30;99.90;;;;;;5042516;28;20710;-58
2022/07/13 05:25:20;;;;;;;2.70;2.20;;;20.30;99.90;;;;;;5042358;28;20231;-58
2022/07/13 05:27:49;;;;;;;6.43;2.70;;;20.40;99.90;;;;;;5042643;28;20575;-58
2022/07/13 05:30:18;;;;;;;3.00;2.50;;;20.50;99.90;;;;;;5042903;28;20270;-58
2022/07/13 05:32:47;;;;;;;4.47;2.50;;;20.50;99.90;;;;;;5043607;28;20242;-59
2022/07/13 05:35:15;;;;;;;2.87;2.67;;;20.60;99.90;;;;;;5043028;28;20618;-58
2022/07/13 05:37:45;;;;;;;4.73;2.67;;;20.60;99.90;;;;;;5058419;28;20251;-59
2022/07/13 05:40:13;;;;;;;3.87;2.67;;;20.70;99.90;;;;;;5044348;28;20239;-58
2022/07/13 05:42:46;;;;;;;3.43;3.13;;;20.80;99.90;;;;;;5060184;28;20769;-58
2022/07/13 05:45:14;;;;;;;3.23;2.93;;;20.80;99.90;;;;;;5044051;28;20242;-58
2022/07/13 05:47:46;;;;;;;3.30;2.90;;;20.80;99.90;;;;;;5043422;28;20365;-58
2022/07/13 05:50:17;;;;;;;3.53;3.10;;;20.80;99.90;;;;;;5042959;28;21154;-58
2022/07/13 05:52:45;;;;;;;4.43;3.67;;;20.90;99.90;;;;;;5042519;28;21250;-58
2022/07/13 05:55:15;;;;;;;4.27;3.00;;;21.00;99.90;;;;;;5062055;28;20228;-58
2022/07/13 05:57:44;;;;;;;3.07;2.70;;;21.00;99.90;;;;;;5043358;28;20238;-59
2022/07/13 06:00:14;;;;;;;5.13;3.40;;;21.00;99.90;;;;;;5039296;28;20239;-59
2022/07/13 06:02:43;;;;;;;3.57;3.10;;;21.00;99.90;;;;;;5043477;28;20239;-57
2022/07/13 06:05:12;;;;;;;3.30;3.10;;;21.00;99.90;;;;;;5042987;28;20583;-58
2022/07/13 06:07:40;;;;;;;3.13;2.93;;;21.00;99.90;;;;;;5045381;28;20254;-58
2022/07/13 06:10:09;;;;;;;5.67;3.47;;;21.10;99.90;;;;;;5049195;28;20327;-59
2022/07/13 06:12:38;;;;;;;3.93;3.17;;;21.10;99.90;;;;;;5044469;28;20330;-59
2022/07/13 06:15:07;;;;;;;5.03;3.40;;;21.00;99.90;;;;;;5044300;28;20230;-58
2022/07/13 06:17:35;;;;;;;3.40;3.10;;;21.00;99.90;;;;;;5042714;28;20242;-58
2022/07/13 06:20:05;;;;;;;4.27;3.17;;;21.00;99.90;;;;;;5043199;28;20230;-58
2022/07/13 06:22:35;;;;;;;3.70;3.40;;;20.90;99.90;;;;;;5044776;28;20227;-58
2022/07/13 06:25:04;;;;;;;3.20;3.00;;;20.80;99.90;;;;;;5043444;28;20230;-58
2022/07/13 06:27:32;;;;;;;4.53;3.37;;;20.80;99.90;;;;;;5044206;28;20222;-58
2022/07/13 06:30:03;;;;;;;3.37;2.80;;;20.80;99.90;;;;;;5046603;28;20226;-58
2022/07/13 06:32:39;;;;;;;4.37;3.23;;;20.70;99.90;;;;;;5045774;28;20713;-61
2022/07/13 06:35:08;;;;;;;4.23;3.20;;;20.70;99.90;;;;;;5045312;28;20239;-59
2022/07/13 06:37:37;;;;;;;4.17;3.77;;;20.70;99.90;;;;;;5042860;28;20357;-58
2022/07/13 06:40:14;;;;;;;4.07;3.67;;;20.70;99.90;;;;;;5042990;28;20238;-58
2022/07/13 06:42:43;;;;;;;4.00;3.67;;;20.60;99.90;;;;;;5042683;28;21068;-58
2022/07/13 06:45:12;;;;;;;3.37;3.00;;;20.60;99.90;;;;;;5050448;28;20282;-61
2022/07/13 06:47:42;;;;;;;4.90;3.63;;;20.60;99.90;;;;;;5052205;28;20242;-58
2022/07/13 06:50:10;;;;;;;4.43;3.37;;;20.60;99.90;;;;;;5055416;28;20313;-60
2022/07/13 06:52:41;;;;;;;9.03;3.63;;;20.60;99.90;;;;;;5049457;28;20223;-58
2022/07/13 06:55:09;;;;;;;4.50;4.10;;;20.50;99.90;;;;;;5059536;28;20231;-65
2022/07/13 06:57:37;;;;;;;3.83;3.07;;;20.50;99.90;;;;;;5066792;28;20234;-60
2022/07/13 07:00:07;;;;;;;5.50;3.67;;;20.50;99.90;;;;;;5067367;28;20240;-66
2022/07/13 07:02:36;;;;;;;4.03;3.67;;;20.50;99.90;;;;;;5063792;28;20242;-58
2022/07/13 07:05:07;;;;;;;4.07;3.73;;;20.60;99.90;;;;;;5062963;28;20253;-63
2022/07/13 07:07:35;;;;;;;4.20;3.80;;;20.80;99.90;;;;;;5062487;28;20261;-64
2022/07/13 07:10:06;;;;;;;3.90;3.50;;;20.90;99.90;;;;;;5067945;28;20223;-68
2022/07/13 07:12:35;;;;;;;4.03;3.40;;;21.00;99.90;;;;;;5064959;28;20276;-60
2022/07/13 07:15:03;;;;;;;3.77;3.13;;;21.00;99.90;;;;;;5064028;28;20220;-72
2022/07/13 07:17:31;;;;;;;3.57;3.10;;;21.10;99.90;;;;;;5062216;28;20235;-66
2022/07/13 07:20:00;;;;;;;3.90;3.60;;;21.20;99.90;;;;;;5063253;28;20226;-60
2022/07/13 07:22:28;;;;;;;4.60;3.37;;;21.30;99.90;;;;;;5066380;28;20234;-64
2022/07/13 07:24:56;;;;;;;4.27;3.17;;;21.30;99.90;;;;;;5069680;28;20223;-62
2022/07/13 07:27:28;;;;;;;5.30;3.80;;;21.30;99.90;;;;;;5068366;28;20288;-64
2022/07/13 07:29:56;;;;;;;3.33;3.03;;;21.40;99.90;;;;;;5069430;28;20220;-60
2022/07/13 07:32:24;;;;;;;4.80;3.70;;;21.50;99.90;;;;;;5067915;28;20353;-59
2022/07/13 07:34:52;;;;;;;4.67;3.50;;;21.60;99.90;;;;;;5071665;28;20781;-64
2022/07/13 07:37:21;;;;;;;5.33;3.30;;;21.60;99.90;;;;;;5070196;28;20307;-61
2022/07/13 07:39:49;;;;;;;4.13;3.83;;;21.70;99.90;;;;;;5063621;28;20250;-60
2022/07/13 07:42:17;;;;;;;3.70;2.87;;;21.90;99.90;;;;;;5057304;28;20231;-62
2022/07/13 07:44:47;;;;;;;3.03;2.77;;;22.00;99.90;;;;;;5050573;28;20242;-58
2022/07/13 07:47:22;;;;;;;4.03;3.20;;;22.20;99.90;;;;;;5047455;28;20250;-61
2022/07/13 07:49:56;;;;;;;4.60;3.13;;;22.30;99.90;;;;;;5046388;28;20250;-58
2022/07/13 07:52:24;;;;;;;3.80;3.20;;;22.50;99.90;;;;;;5046378;28;20256;-58
2022/07/13 07:55:12;;;;;;;4.63;3.33;;;22.60;99.90;;;;;;5052974;28;20695;-58
2022/07/13 07:57:48;;;;;;;5.27;3.60;;;22.70;99.90;;;;;;5053191;28;20580;-58
2022/07/13 08:00:19;;;;;;;3.43;3.10;;;22.80;99.90;;;;;;5055961;28;20591;-58
2022/07/13 08:02:48;;;;;;;3.80;3.10;;;22.90;99.90;;;;;;5054840;28;20234;-59
2022/07/13 08:05:17;;;;;;;4.77;3.10;;;22.90;99.90;;;;;;5055269;28;20220;-59
2022/07/13 08:07:46;;;;;;;3.70;3.40;;;22.90;99.90;;;;;;5052851;28;21762;-59
2022/07/13 08:10:15;;;;;;;3.80;3.13;;;23.00;99.90;;;;;;5045415;28;20220;-59
2022/07/13 08:13:03;;;;;;;5.30;3.43;;;23.00;99.90;;;;;;5045853;28;20250;-59
2022/07/13 08:15:33;;;;;;;4.10;2.73;;;23.00;99.90;;;;;;5045700;28;21851;-59
2022/07/13 08:18:02;;;;;;;5.23;3.13;;;23.10;99.90;;;;;;5043302;28;20726;-58
2022/07/13 08:20:30;;;;;;;5.67;4.10;;;23.20;99.90;;;;;;5053323;28;20259;-59
2022/07/13 08:22:59;;;;;;;6.50;3.40;;;23.30;99.90;;;;;;5049982;28;21334;-59
2022/07/13 08:25:28;;;;;;;3.47;2.90;;;23.40;99.90;;;;;;5048975;28;20647;-59
2022/07/13 08:27:58;;;;;;;3.47;3.03;;;23.50;99.90;;;;;;5047892;28;20635;-58
2022/07/13 08:30:26;;;;;;;3.80;3.27;;;23.60;99.90;;;;;;5057431;28;20262;-59
2022/07/13 08:32:56;;;;;;;6.00;3.70;;;23.80;99.90;;;;;;5055208;28;20231;-59
2022/07/13 08:38:35;;;;;;;3.33;3.03;;;24.20;99.90;;;;;;5053372;28;20223;-59
2022/07/13 08:41:04;;;;;;;3.73;3.33;;;24.40;99.90;;;;;;5054865;28;20229;-59
2022/07/13 08:43:33;;;;;;;3.87;3.03;;;24.50;99.90;;;;;;5054571;28;20222;-59
2022/07/13 08:46:05;;;;;;;6.13;3.73;;;24.70;99.90;;;;;;5053099;28;20730;-59
2022/07/13 08:48:39;;;;;;;4.20;3.57;;;24.80;99.90;;;;;;5047619;28;20233;-59
2022/07/13 08:51:07;;;;;;;4.43;3.33;;;24.80;99.90;;;;;;5050321;28;20239;-60
2022/07/13 08:53:35;;;;;;;5.33;3.60;;;24.80;99.90;;;;;;5049619;28;20243;-59
2022/07/13 08:56:04;;;;;;;4.00;3.60;;;24.80;99.90;;;;;;5046483;28;20711;-59
2022/07/13 08:58:32;;;;;;;4.10;3.70;;;24.80;99.90;;;;;;5049120;28;20217;-59
2022/07/13 09:01:00;;;;;;;4.10;3.67;;;24.80;99.90;;;;;;5050072;28;20282;-59
2022/07/13 09:03:35;;;;;;;4.07;3.30;;;24.90;99.90;;;;;;5049740;28;20236;-59
2022/07/13 09:06:03;;;;;;;4.17;3.77;;;25.00;99.90;;;;;;5051684;28;20682;-59
2022/07/13 09:08:40;;;;;;;5.33;3.77;;;25.20;99.90;;;;;;5051962;28;20324;-59
2022/07/13 09:11:09;;;;;;;4.17;3.23;;;25.50;99.90;;;;;;5055086;28;20605;-59
2022/07/13 09:13:39;;;;;;;4.27;3.87;;;25.60;99.90;;;;;;5053636;28;20225;-59
2022/07/13 09:16:16;;;;;;;4.40;4.00;;;25.60;99.90;;;;;;5052149;28;20233;-59
2022/07/13 09:18:47;;;;;;;4.07;3.70;;;25.60;99.90;;;;;;5050076;28;20234;-59
2022/07/13 09:21:16;;;;;;;3.80;3.47;;;25.50;99.90;;;;;;5050404;28;20234;-59
2022/07/13 09:23:47;;;;;;;4.07;3.20;;;25.80;99.90;;;;;;5051661;28;20279;-59
2022/07/13 09:26:16;;;;;;;3.87;3.57;;;25.90;99.90;;;;;;5046844;28;20233;-59
2022/07/13 09:28:45;;;;;;;5.97;3.97;;;26.00;99.90;;;;;;5044916;28;20233;-59
2022/07/13 09:31:14;;;;;;;15.33;3.50;;;26.20;99.90;;;;;;5047697;28;20241;-59
2022/07/13 09:33:45;;;;;;;3.87;3.30;;;26.40;99.90;;;;;;5050644;28;20222;-59
2022/07/13 09:36:15;;;;;;;4.57;4.10;;;26.90;99.90;;;;;;5050838;28;20233;-59
2022/07/13 09:38:45;;;;;;;4.93;3.53;;;27.70;99.90;;;;;;5053387;28;20288;-59
2022/07/13 09:41:18;;;;;;;5.30;3.80;;;28.20;99.90;;;;;;5057639;28;20229;-59
2022/07/13 09:46:55;;;;;;;4.00;3.60;;;28.50;99.90;;;;;;5059006;28;20297;-59
2022/07/13 09:49:34;;;;;;;4.50;3.80;;;29.00;99.90;;;;;;5053215;28;20284;-59
2022/07/13 09:52:05;;;;;;;3.27;3.03;;;29.50;99.90;;;;;;5055508;28;20581;-59
2022/07/13 09:54:34;;;;;;;5.43;3.80;;;30.10;99.90;;;;;;5050847;28;20626;-59
2022/07/13 09:57:04;;;;;;;3.67;3.37;;;30.10;99.90;;;;;;5047159;28;20297;-59
2022/07/13 09:59:35;;;;;;;4.17;3.70;;;30.30;99.90;;;;;;5050867;28;20320;-60
2022/07/13 10:02:04;;;;;;;5.50;3.17;;;30.20;99.90;;;;;;5052047;28;20325;-60
2022/07/13 10:04:35;;;;;;;6.97;3.60;;;30.40;99.90;;;;;;5049752;28;20353;-60
2022/07/13 10:07:23;;;;;;;3.77;3.33;;;30.90;99.90;;;;;;5049720;28;20239;-60
2022/07/13 10:09:52;;;;;;;3.30;3.00;;;30.90;99.90;;;;;;5047563;28;20693;-60
2022/07/13 10:12:21;;;;;;;4.07;3.23;;;31.20;99.90;;;;;;5047399;28;20825;-60
2022/07/13 10:14:51;;;;;;;3.50;3.20;;;31.30;99.90;;;;;;5045664;28;20232;-60
2022/07/13 10:17:22;;;;;;;4.93;3.03;;;31.40;99.90;;;;;;5050300;28;20646;-60
2022/07/13 10:20:00;;;;;;;4.20;3.00;;;31.30;99.90;;;;;;5048028;28;20243;-60
2022/07/13 10:22:33;;;;;;;4.43;3.30;;;30.90;99.90;;;;;;5047085;28;20227;-59
2022/07/13 10:25:02;;;;;;;3.67;3.20;;;30.80;99.90;;;;;;5046073;28;20672;-59
2022/07/13 10:27:32;;;;;;;3.83;3.30;;;30.60;99.90;;;;;;5049122;28;20228;-59
2022/07/13 10:30:03;;;;;;;6.13;3.43;;;30.50;99.90;;;;;;5047021;28;20223;-59
2022/07/13 10:32:33;;;;;;;4.43;3.30;;;30.80;99.90;;;;;;5054546;28;20286;-59
2022/07/13 10:35:07;;;;;;;5.00;3.50;;;30.90;99.90;;;;;;5054780;28;20619;-60
2022/07/13 10:38:19;;;;;;;5.13;3.43;;;31.70;99.90;;;;;;5053281;28;20305;-60
2022/07/13 10:40:48;;;;;;;5.20;3.40;;;32.20;99.90;;;;;;5048461;28;20236;-60
2022/07/13 10:43:17;;;;;;;4.63;3.30;;;32.50;99.90;;;;;;5041682;28;20589;-60
2022/07/13 10:45:52;;;;;;;5.17;3.67;;;32.40;99.90;;;;;;5041561;28;20785;-60
2022/07/13 10:48:45;;;;;;;3.83;3.27;;;32.50;99.90;;;;;;5043400;28;20229;-60
2022/07/13 10:51:22;;;;;;;5.80;3.13;;;32.40;99.90;;;;;;5045612;28;20277;-61
2022/07/13 10:54:10;;;;;;;5.57;2.80;;;32.70;99.90;;;;;;5041020;28;20692;-60
2022/07/13 10:57:00;;;;;;;4.37;3.53;;;32.90;99.90;;;;;;5041882;28;20242;-60
2022/07/13 10:59:48;;;;;;;4.50;3.47;;;33.10;99.90;;;;;;5040661;28;20376;-60
2022/07/13 11:02:46;;;;;;;6.90;3.50;;;33.30;99.90;;;;;;5041197;28;20724;-60
2022/07/13 11:05:17;;;;;;;3.40;3.10;;;33.30;99.90;;;;;;5046076;28;20230;-61
2022/07/13 11:07:49;;;;;;;3.00;2.70;;;33.50;99.90;;;;;;5048468;28;20345;-61
2022/07/13 11:10:19;;;;;;;5.47;3.60;;;33.60;99.90;;;;;;5046890;28;20640;-61
2022/07/13 11:13:09;;;;;;;3.37;3.07;;;33.70;99.90;;;;;;5045751;28;20235;-61
2022/07/13 11:15:48;;;;;;;4.10;3.53;;;33.80;99.90;;;;;;5041159;28;20587;-60
2022/07/13 11:18:28;;;;;;;4.07;3.07;;;33.80;99.90;;;;;;5046412;28;20258;-61
2022/07/13 11:20:58;;;;;;;3.00;2.73;;;33.00;99.90;;;;;;5046565;28;20986;-60
2022/07/13 11:26:30;;;;;;;5.40;3.27;;;32.50;99.90;;;;;;5042867;28;20265;-61
2022/07/13 11:29:10;;;;;;;4.10;3.20;;;32.50;99.90;;;;;;5040585;28;20251;-61
2022/07/13 11:31:40;;;;;;;3.80;3.00;;;32.70;99.90;;;;;;5039896;28;20251;-61
2022/07/13 11:34:09;;;;;;;4.10;2.73;;;33.20;99.90;;;;;;5042349;28;20226;-60
2022/07/13 11:36:38;;;;;;;6.00;3.40;;;33.10;99.90;;;;;;5040335;28;20589;-60
2022/07/13 11:39:22;;;;;;;5.33;3.57;;;32.80;99.90;;;;;;5040254;28;20243;-61
2022/07/13 11:41:51;;;;;;;4.43;3.50;;;32.60;99.90;;;;;;5041013;28;20719;-60
2022/07/13 11:44:22;;;;;;;4.83;3.17;;;32.50;99.90;;;;;;5047042;28;20249;-60
2022/07/13 11:46:50;;;;;;;3.80;3.43;;;32.90;99.90;;;;;;5046616;28;20330;-61
2022/07/13 11:49:18;;;;;;;6.20;3.60;;;33.50;99.90;;;;;;5042113;28;20234;-61
2022/07/13 11:51:47;;;;;;;5.60;3.40;;;33.50;99.90;;;;;;5050126;28;20323;-61
2022/07/13 11:54:18;;;;;;;4.13;2.97;;;33.40;99.90;;;;;;5048986;28;20224;-60
2022/07/13 11:56:47;;;;;;;3.47;2.80;;;33.50;99.90;;;;;;5049054;28;20243;-60
2022/07/13 11:59:16;;;;;;;4.20;3.03;;;33.40;99.90;;;;;;5051333;28;21027;-61
2022/07/13 12:01:51;;;;;;;3.80;3.50;;;33.40;99.90;;;;;;5047121;28;20836;-60
2022/07/13 12:04:23;;;;;;;7.17;3.90;;;33.30;99.90;;;;;;5049279;28;20227;-60
2022/07/13 12:06:51;;;;;;;3.97;3.37;;;32.70;99.90;;;;;;5051233;28;20314;-60
2022/07/13 12:09:21;;;;;;;4.27;3.53;;;32.40;99.90;;;;;;5054544;28;20222;-60
2022/07/13 12:11:49;;;;;;;5.37;3.80;;;31.60;99.90;;;;;;5055906;28;20768;-60
2022/07/13 12:14:18;;;;;;;4.03;3.50;;;31.20;99.90;;;;;;5051986;28;20719;-60
2022/07/13 12:16:46;;;;;;;3.60;3.30;;;31.10;99.90;;;;;;5051911;28;20231;-60
2022/07/13 12:19:14;;;;;;;3.50;3.10;;;30.90;99.90;;;;;;5050849;28;20311;-61
2022/07/13 12:21:57;;;;;;;3.77;3.47;;;30.80;99.90;;;;;;5048742;28;20278;-60
2022/07/13 12:24:29;;;;;;;4.40;3.87;;;31.20;99.90;;;;;;5049302;28;20236;-61
2022/07/13 12:26:57;;;;;;;3.20;2.97;;;31.10;99.90;;;;;;5050354;28;20290;-61
2022/07/13 12:29:30;;;;;;;6.37;3.40;;;31.70;99.90;;;;;;5053030;28;20238;-61
2022/07/13 12:31:59;;;;;;;3.67;3.10;;;31.20;99.90;;;;;;5057454;28;20238;-61
2022/07/13 12:34:27;;;;;;;4.67;3.07;;;30.80;99.90;;;;;;5050872;28;20321;-60
2022/07/13 12:36:55;;;;;;;2.77;2.57;;;30.60;99.90;;;;;;5048944;28;20350;-60
2022/07/13 12:39:36;;;;;;;4.37;2.30;;;30.40;99.90;;;;;;5051321;28;20233;-61
2022/07/13 12:42:07;;;;;;;4.27;2.50;;;29.70;99.90;;;;;;5048264;28;20244;-60
2022/07/13 12:44:36;;;;;;;3.63;2.40;;;29.20;99.90;;;;;;5047187;28;20232;-60
2022/07/13 12:47:05;;;;;;;2.90;2.57;;;29.30;99.90;;;;;;5050157;28;20236;-60
2022/07/13 12:49:36;;;;;;;3.30;2.77;;;29.40;99.90;;;;;;5049516;28;20249;-60
2022/07/13 12:52:06;;;;;;;4.63;3.30;;;29.40;99.90;;;;;;5047279;28;20784;-60
2022/07/13 12:54:46;;;;;;;4.10;3.30;;;29.50;99.90;;;;;;5047803;28;20247;-60
2022/07/13 12:57:16;;;;;;;4.87;3.43;;;29.70;99.90;;;;;;5047750;28;20322;-61
2022/07/13 12:59:59;;;;;;;4.53;4.07;;;29.60;99.90;;;;;;5049421;28;20258;-60
2022/07/13 13:02:29;;;;;;;3.37;2.80;;;29.20;99.90;;;;;;5046799;28;20236;-60
2022/07/13 13:04:58;;;;;;;5.83;3.40;;;29.20;99.90;;;;;;5048171;28;20246;-60
2022/07/13 13:07:26;;;;;;;5.03;3.20;;;29.00;99.90;;;;;;5046844;28;20235;-60
2022/07/13 13:09:56;;;;;;;6.27;4.03;;;28.90;99.90;;;;;;5049689;28;20232;-60
2022/07/13 13:12:29;;;;;;;4.97;3.60;;;28.80;99.90;;;;;;5047638;28;20266;-60
2022/07/13 13:15:04;;;;;;;4.20;3.60;;;28.50;99.90;;;;;;5047236;28;20311;-60